Time;durP1;ratioP1;P1;durP2;ratioP2;P2;SDS_P1;SDS_P2;PMS_P1;PMS_P2;Temp;Humidity;BMP_temperature;BMP_pressure;BME280_temperature;BME280_humidity;BME280_pressure;Samples;Min_cycle;Max_cycle;Signal;HPM_P1;HPM_P2
2021/10/30 00:00:10;;;;;;;0.98;0.68;;;12.20;91.40;;;;;;6299199;22;20344;-79
2021/10/30 00:02:37;;;;;;;0.40;0.40;;;12.20;91.40;;;;;;6275847;22;19992;-80
2021/10/30 00:05:05;;;;;;;1.67;0.50;;;12.10;91.40;;;;;;6250586;22;20008;-80
2021/10/30 00:07:30;;;;;;;0.70;0.47;;;12.10;91.50;;;;;;6255949;22;20008;-80
2021/10/30 00:09:56;;;;;;;0.55;0.50;;;12.10;91.50;;;;;;6269973;22;20004;-81
2021/10/30 00:12:22;;;;;;;0.60;0.50;;;12.10;91.50;;;;;;6234608;22;20034;-80
2021/10/30 00:14:48;;;;;;;0.60;0.60;;;12.10;91.50;;;;;;6298664;22;20008;-79
2021/10/30 00:17:15;;;;;;;1.38;0.60;;;12.00;91.50;;;;;;6274990;22;20056;-79
2021/10/30 00:19:41;;;;;;;0.30;0.30;;;12.00;91.50;;;;;;6266857;22;20078;-79
2021/10/30 00:22:08;;;;;;;0.75;0.57;;;12.00;91.50;;;;;;6233375;22;20069;-79
2021/10/30 00:24:34;;;;;;;0.43;0.43;;;11.90;91.50;;;;;;6301841;22;20047;-79
2021/10/30 00:27:01;;;;;;;1.58;0.63;;;11.90;91.50;;;;;;6244666;22;19996;-79
2021/10/30 00:29:27;;;;;;;0.50;0.40;;;11.90;91.60;;;;;;6232050;22;20066;-79
2021/10/30 00:31:55;;;;;;;0.60;0.40;;;11.90;91.60;;;;;;6228180;22;20509;-80
2021/10/30 00:34:22;;;;;;;0.50;0.50;;;12.00;91.60;;;;;;6253150;22;20467;-80
2021/10/30 00:36:49;;;;;;;0.75;0.38;;;11.90;91.60;;;;;;6250721;22;20004;-81
2021/10/30 00:39:15;;;;;;;0.65;0.50;;;11.90;91.50;;;;;;6250481;22;20010;-80
2021/10/30 00:41:44;;;;;;;0.70;0.60;;;11.90;91.60;;;;;;6219143;22;20011;-80
2021/10/30 00:44:11;;;;;;;0.40;0.40;;;11.80;91.60;;;;;;6249718;22;20015;-80
2021/10/30 00:46:42;;;;;;;0.57;0.50;;;11.80;91.60;;;;;;6247165;22;20008;-80
2021/10/30 00:49:10;;;;;;;1.48;0.52;;;11.70;91.60;;;;;;6223711;22;20000;-81
2021/10/30 00:51:37;;;;;;;0.30;0.30;;;11.70;91.70;;;;;;6251449;22;20405;-81
2021/10/30 00:54:04;;;;;;;0.40;0.40;;;11.60;91.70;;;;;;6278933;22;20086;-80
2021/10/30 00:56:31;;;;;;;0.38;0.30;;;11.70;91.70;;;;;;6279086;22;20439;-81
2021/10/30 00:59:00;;;;;;;0.63;0.52;;;11.60;91.70;;;;;;6268953;22;20054;-81
2021/10/30 01:01:26;;;;;;;0.70;0.50;;;11.60;91.80;;;;;;6268361;22;20015;-81
2021/10/30 01:03:52;;;;;;;0.85;0.57;;;11.50;91.80;;;;;;6272383;22;20007;-81
2021/10/30 01:06:19;;;;;;;0.40;0.40;;;11.40;91.80;;;;;;6223008;22;20022;-81
2021/10/30 01:08:46;;;;;;;0.50;0.50;;;11.40;91.80;;;;;;6271197;22;20008;-81
2021/10/30 01:11:15;;;;;;;0.45;0.45;;;11.40;91.90;;;;;;6247206;22;20034;-81
2021/10/30 01:13:41;;;;;;;0.50;0.40;;;11.30;91.90;;;;;;6269750;22;20007;-81
2021/10/30 01:16:07;;;;;;;0.65;0.60;;;11.30;91.90;;;;;;6275807;22;20011;-81
2021/10/30 01:18:33;;;;;;;0.70;0.70;;;11.30;91.90;;;;;;6248448;22;20038;-81
2021/10/30 01:20:59;;;;;;;0.70;0.60;;;11.30;91.90;;;;;;6272534;22;20011;-78
2021/10/30 01:23:24;;;;;;;0.47;0.47;;;11.30;91.90;;;;;;6271739;22;20036;-81
2021/10/30 01:26:00;;;;;;;0.45;0.45;;;11.30;91.90;;;;;;6245451;22;20004;-81
2021/10/30 01:28:28;;;;;;;0.80;0.57;;;11.20;91.90;;;;;;6247944;22;20004;-81
2021/10/30 01:30:55;;;;;;;0.63;0.60;;;11.10;91.90;;;;;;6248143;22;20011;-81
2021/10/30 01:33:21;;;;;;;0.85;0.70;;;11.10;91.90;;;;;;6223144;22;20023;-81
2021/10/30 01:35:46;;;;;;;0.90;0.80;;;11.20;91.90;;;;;;6272498;22;20066;-81
2021/10/30 01:38:14;;;;;;;1.05;0.80;;;11.10;91.90;;;;;;6273848;22;20383;-81
2021/10/30 01:40:50;;;;;;;0.80;0.70;;;11.00;91.90;;;;;;6248230;22;20066;-81
2021/10/30 01:43:18;;;;;;;0.60;0.55;;;11.10;92.00;;;;;;6221919;22;20007;-81
2021/10/30 01:45:45;;;;;;;0.77;0.70;;;11.00;91.90;;;;;;6221392;22;20008;-81
2021/10/30 01:48:11;;;;;;;0.85;0.73;;;11.00;91.90;;;;;;6277397;22;20075;-81
2021/10/30 01:50:39;;;;;;;0.70;0.70;;;11.00;92.00;;;;;;6248238;22;20022;-81
2021/10/30 01:53:06;;;;;;;0.80;0.68;;;11.00;91.90;;;;;;6275031;22;20034;-82
2021/10/30 01:55:35;;;;;;;1.88;1.00;;;10.90;92.00;;;;;;6250371;22;20012;-81
2021/10/30 01:58:01;;;;;;;1.13;0.80;;;10.90;92.00;;;;;;6270551;22;20439;-80
2021/10/30 02:00:27;;;;;;;0.88;0.70;;;10.80;92.00;;;;;;6252704;22;20011;-80
2021/10/30 02:02:53;;;;;;;0.90;0.70;;;10.80;92.00;;;;;;6253961;22;20407;-81
2021/10/30 02:05:19;;;;;;;0.68;0.68;;;10.80;92.00;;;;;;6251268;22;20014;-83
2021/10/30 02:07:45;;;;;;;1.27;0.75;;;10.80;92.00;;;;;;6253867;22;20003;-80
2021/10/30 02:10:12;;;;;;;1.00;0.70;;;10.80;92.00;;;;;;6251587;22;20039;-82
2021/10/30 02:12:39;;;;;;;1.02;0.75;;;10.70;92.00;;;;;;6227860;22;20027;-80
2021/10/30 02:15:05;;;;;;;0.98;0.80;;;10.70;92.00;;;;;;6252624;22;20458;-81
2021/10/30 02:17:31;;;;;;;1.17;0.70;;;10.70;92.30;;;;;;6252325;22;20428;-81
2021/10/30 02:19:57;;;;;;;0.98;0.77;;;10.70;92.10;;;;;;6278956;22;20061;-81
2021/10/30 02:22:23;;;;;;;0.65;0.65;;;10.70;92.00;;;;;;6251385;22;20015;-81
2021/10/30 02:24:50;;;;;;;0.77;0.60;;;10.70;92.10;;;;;;6251759;22;20004;-81
2021/10/30 02:27:15;;;;;;;1.30;1.00;;;10.80;92.10;;;;;;6251103;22;20008;-81
2021/10/30 02:29:41;;;;;;;0.93;0.50;;;10.70;92.10;;;;;;6251858;22;20023;-81
2021/10/30 02:32:07;;;;;;;0.88;0.68;;;10.60;92.00;;;;;;6251908;22;20062;-81
2021/10/30 02:34:33;;;;;;;0.77;0.70;;;10.60;92.00;;;;;;6227264;22;20061;-81
2021/10/30 02:36:59;;;;;;;1.30;0.77;;;10.60;92.00;;;;;;6251337;22;20495;-81
2021/10/30 02:39:25;;;;;;;0.75;0.70;;;10.70;92.00;;;;;;6251822;22;20075;-81
2021/10/30 02:41:51;;;;;;;1.17;0.63;;;10.60;92.00;;;;;;6277931;22;20003;-80
2021/10/30 02:44:17;;;;;;;0.75;0.60;;;10.70;92.00;;;;;;6251266;22;20014;-80
2021/10/30 02:46:43;;;;;;;0.45;0.45;;;10.70;92.00;;;;;;6279624;22;20086;-81
2021/10/30 02:49:09;;;;;;;1.27;0.85;;;10.70;92.00;;;;;;6278644;22;20441;-81
2021/10/30 02:51:35;;;;;;;0.60;0.52;;;10.70;92.00;;;;;;6226239;22;20012;-81
2021/10/30 02:54:00;;;;;;;0.88;0.77;;;10.70;92.00;;;;;;6277803;22;20008;-81
2021/10/30 02:56:26;;;;;;;1.05;0.80;;;10.70;91.90;;;;;;6279566;22;20015;-81
2021/10/30 02:58:52;;;;;;;0.50;0.50;;;10.70;92.00;;;;;;6252346;22;20094;-81
2021/10/30 03:01:18;;;;;;;0.70;0.60;;;10.70;91.90;;;;;;6280635;22;20011;-81
2021/10/30 03:03:43;;;;;;;1.05;0.77;;;10.70;91.90;;;;;;6254119;22;20087;-81
2021/10/30 03:06:09;;;;;;;0.90;0.63;;;10.70;91.90;;;;;;6281268;22;20061;-81
2021/10/30 03:08:35;;;;;;;0.47;0.47;;;10.80;91.90;;;;;;6279287;22;20004;-81
2021/10/30 03:11:01;;;;;;;0.50;0.50;;;10.80;91.90;;;;;;6230328;22;20031;-80
2021/10/30 03:13:28;;;;;;;0.30;0.30;;;10.80;91.90;;;;;;6266181;22;20011;-80
2021/10/30 03:15:55;;;;;;;0.60;0.50;;;10.80;91.80;;;;;;6290104;22;20011;-79
2021/10/30 03:18:22;;;;;;;0.60;0.60;;;10.90;91.90;;;;;;6235734;22;20139;-79
2021/10/30 03:20:49;;;;;;;0.40;0.40;;;10.90;91.80;;;;;;6264105;22;20024;-79
2021/10/30 03:23:15;;;;;;;0.40;0.38;;;10.90;92.10;;;;;;6263668;22;20008;-79
2021/10/30 03:25:41;;;;;;;0.50;0.50;;;11.00;91.80;;;;;;6263157;22;20443;-79
2021/10/30 03:28:08;;;;;;;0.40;0.40;;;11.00;91.80;;;;;;6238383;22;20423;-79
2021/10/30 03:30:34;;;;;;;0.82;0.68;;;11.00;91.80;;;;;;6238483;22;20015;-80
2021/10/30 03:32:59;;;;;;;0.40;0.40;;;11.10;91.80;;;;;;6262042;22;20305;-79
2021/10/30 03:35:25;;;;;;;1.02;0.68;;;11.10;91.80;;;;;;6235752;22;20012;-79
2021/10/30 03:37:51;;;;;;;0.52;0.52;;;11.10;91.80;;;;;;6261623;22;20019;-79
2021/10/30 03:40:17;;;;;;;0.52;0.52;;;11.20;91.80;;;;;;6288374;22;20083;-79
2021/10/30 03:42:42;;;;;;;0.80;0.50;;;11.20;91.80;;;;;;6264230;22;20007;-79
2021/10/30 03:45:09;;;;;;;1.05;0.57;;;11.30;91.80;;;;;;6256172;22;20018;-80
2021/10/30 03:47:36;;;;;;;0.50;0.47;;;11.30;91.80;;;;;;6281301;22;20419;-79
2021/10/30 03:50:03;;;;;;;1.30;0.80;;;11.30;91.80;;;;;;6237307;22;20011;-79
2021/10/30 03:52:29;;;;;;;1.27;0.80;;;11.30;91.80;;;;;;6288739;22;20008;-79
2021/10/30 03:54:54;;;;;;;2.35;0.95;;;11.30;91.80;;;;;;6250066;22;20042;-79
2021/10/30 03:57:21;;;;;;;0.85;0.82;;;11.30;91.70;;;;;;6250077;22;20012;-80
2021/10/30 03:59:47;;;;;;;0.55;0.55;;;11.30;91.70;;;;;;6279560;22;20065;-80
2021/10/30 04:02:13;;;;;;;1.08;0.77;;;11.30;91.70;;;;;;6255493;22;20015;-80
2021/10/30 04:04:39;;;;;;;0.68;0.65;;;11.30;91.80;;;;;;6254463;22;20007;-79
2021/10/30 04:07:05;;;;;;;1.13;0.80;;;11.30;91.80;;;;;;6232898;22;20014;-79
2021/10/30 04:09:31;;;;;;;0.75;0.75;;;11.40;91.80;;;;;;6288883;22;20015;-78
2021/10/30 04:11:57;;;;;;;1.10;0.90;;;11.40;91.80;;;;;;6265204;22;20032;-78
2021/10/30 04:14:23;;;;;;;0.80;0.77;;;11.30;91.80;;;;;;6231908;22;20018;-79
2021/10/30 04:16:49;;;;;;;0.88;0.73;;;11.40;91.80;;;;;;6260959;22;20019;-79
2021/10/30 04:19:15;;;;;;;0.90;0.80;;;11.50;91.80;;;;;;6263895;22;20003;-79
2021/10/30 04:21:42;;;;;;;1.48;0.90;;;11.40;91.80;;;;;;6287614;22;20032;-79
2021/10/30 04:24:08;;;;;;;1.13;0.90;;;11.40;91.80;;;;;;6254850;22;20084;-79
2021/10/30 04:26:34;;;;;;;0.95;0.73;;;11.50;91.80;;;;;;6288338;22;20423;-79
2021/10/30 04:29:00;;;;;;;1.70;0.80;;;11.40;91.80;;;;;;6287368;22;20007;-78
2021/10/30 04:31:28;;;;;;;0.55;0.52;;;11.40;91.80;;;;;;6287883;22;20007;-79
2021/10/30 04:33:59;;;;;;;1.08;0.80;;;11.40;91.80;;;;;;6260035;22;20016;-79
2021/10/30 04:36:27;;;;;;;1.05;0.73;;;11.50;91.80;;;;;;6231625;22;20011;-79
2021/10/30 04:38:53;;;;;;;1.00;0.90;;;11.40;91.80;;;;;;6289428;22;20039;-79
2021/10/30 04:41:19;;;;;;;1.17;0.90;;;11.50;91.80;;;;;;6285819;22;20012;-79
2021/10/30 04:43:46;;;;;;;1.05;0.80;;;11.40;91.80;;;;;;6257309;22;20444;-79
2021/10/30 04:46:14;;;;;;;1.05;0.70;;;11.40;91.70;;;;;;6235266;22;20031;-79
2021/10/30 04:48:40;;;;;;;1.00;0.90;;;11.40;91.80;;;;;;6236110;22;20095;-80
2021/10/30 04:51:07;;;;;;;1.10;0.95;;;11.50;91.80;;;;;;6229203;22;20012;-79
2021/10/30 04:53:35;;;;;;;1.60;1.10;;;11.50;91.80;;;;;;6245184;23;20014;-79
2021/10/30 04:56:02;;;;;;;1.20;1.00;;;11.50;91.80;;;;;;6257224;22;20011;-79
2021/10/30 04:58:28;;;;;;;1.92;1.10;;;11.50;91.80;;;;;;6286649;22;20042;-79
2021/10/30 05:00:54;;;;;;;1.10;0.90;;;11.50;91.80;;;;;;6284566;22;20014;-79
2021/10/30 05:03:20;;;;;;;0.77;0.77;;;11.50;91.80;;;;;;6233401;22;20008;-79
2021/10/30 05:05:45;;;;;;;1.20;0.90;;;11.60;91.80;;;;;;6260478;22;20023;-79
2021/10/30 05:08:11;;;;;;;1.50;1.10;;;11.50;91.80;;;;;;6256701;22;20439;-79
2021/10/30 05:10:37;;;;;;;1.40;0.98;;;11.50;91.80;;;;;;6208678;22;20018;-79
2021/10/30 05:13:03;;;;;;;1.85;1.10;;;11.50;91.80;;;;;;6236184;22;20327;-79
2021/10/30 05:15:28;;;;;;;1.88;1.02;;;11.50;91.80;;;;;;6261828;22;20145;-79
2021/10/30 05:17:54;;;;;;;1.25;1.02;;;11.50;91.70;;;;;;6261203;22;20004;-79
2021/10/30 05:20:21;;;;;;;1.63;1.10;;;11.50;91.70;;;;;;6289719;22;20012;-79
2021/10/30 05:22:46;;;;;;;1.67;1.23;;;11.50;91.80;;;;;;6261014;22;20004;-79
2021/10/30 05:25:12;;;;;;;1.75;1.05;;;11.50;91.80;;;;;;6259282;22;20462;-79
2021/10/30 05:27:38;;;;;;;1.70;1.05;;;11.50;91.80;;;;;;6256945;22;20007;-80
2021/10/30 05:30:04;;;;;;;0.90;0.82;;;11.40;91.70;;;;;;6263824;22;20007;-79
2021/10/30 05:32:30;;;;;;;1.52;1.00;;;11.60;91.80;;;;;;6258642;22;20011;-79
2021/10/30 05:34:55;;;;;;;1.42;0.90;;;11.60;91.80;;;;;;6228275;22;20011;-80
2021/10/30 05:37:21;;;;;;;0.98;0.88;;;11.40;91.70;;;;;;6254670;22;20015;-80
2021/10/30 05:39:47;;;;;;;1.05;0.88;;;11.50;91.80;;;;;;6252489;22;20011;-80
2021/10/30 05:42:13;;;;;;;1.25;0.90;;;11.50;91.80;;;;;;6281937;22;20007;-80
2021/10/30 05:44:40;;;;;;;1.27;0.90;;;11.40;91.80;;;;;;6279104;22;20436;-81
2021/10/30 05:47:08;;;;;;;0.93;0.75;;;11.40;91.80;;;;;;6226319;22;20008;-81
2021/10/30 05:49:37;;;;;;;1.02;0.90;;;11.40;91.80;;;;;;6253389;22;20007;-81
2021/10/30 05:52:03;;;;;;;1.83;1.08;;;11.40;91.80;;;;;;6280084;22;20014;-81
2021/10/30 05:54:28;;;;;;;1.33;0.90;;;11.40;91.80;;;;;;6252037;22;20166;-81
2021/10/30 05:56:55;;;;;;;1.58;0.90;;;11.40;91.80;;;;;;6251554;22;20035;-81
2021/10/30 05:59:20;;;;;;;0.85;0.70;;;11.40;92.10;;;;;;6251933;22;20012;-81
2021/10/30 06:01:46;;;;;;;1.52;1.20;;;11.40;91.80;;;;;;6251357;22;20072;-81
2021/10/30 06:04:12;;;;;;;0.82;0.70;;;11.40;91.80;;;;;;6251056;22;20011;-81
2021/10/30 06:06:38;;;;;;;1.20;0.80;;;11.40;91.80;;;;;;6250847;22;20507;-81
2021/10/30 06:09:04;;;;;;;1.20;0.90;;;11.40;91.80;;;;;;6250685;22;20007;-81
2021/10/30 06:11:29;;;;;;;0.80;0.60;;;11.40;91.90;;;;;;6277450;22;20035;-81
2021/10/30 06:13:55;;;;;;;1.02;0.70;;;11.40;91.90;;;;;;6256743;22;20065;-81
2021/10/30 06:16:21;;;;;;;1.08;0.70;;;11.40;91.90;;;;;;6233166;22;20020;-81
2021/10/30 06:18:48;;;;;;;1.08;0.80;;;11.40;91.90;;;;;;6284584;22;20007;-83
2021/10/30 06:21:18;;;;;;;1.33;0.70;;;11.40;91.90;;;;;;6248741;22;20012;-82
2021/10/30 06:23:44;;;;;;;1.17;0.82;;;11.40;91.90;;;;;;6246649;22;20003;-83
2021/10/30 06:26:10;;;;;;;0.93;0.70;;;11.40;91.90;;;;;;6253687;22;20011;-82
2021/10/30 06:28:36;;;;;;;1.23;0.80;;;11.40;91.90;;;;;;6269285;22;20015;-82
2021/10/30 06:31:01;;;;;;;0.90;0.70;;;11.40;91.90;;;;;;6248770;22;20058;-83
2021/10/30 06:33:31;;;;;;;1.92;0.88;;;11.40;91.90;;;;;;6276414;22;20082;-83
2021/10/30 06:35:56;;;;;;;1.27;0.68;;;11.40;91.90;;;;;;6204594;22;20347;-82
2021/10/30 06:38:23;;;;;;;1.15;0.70;;;11.50;92.00;;;;;;6239031;22;20004;-82
2021/10/30 06:40:49;;;;;;;1.05;0.73;;;11.40;91.90;;;;;;6266631;22;20020;-81
2021/10/30 06:43:14;;;;;;;2.15;1.00;;;11.40;91.90;;;;;;6214912;22;20004;-79
2021/10/30 06:45:40;;;;;;;1.13;0.70;;;11.40;91.90;;;;;;6244206;22;19996;-79
2021/10/30 06:48:06;;;;;;;1.02;0.77;;;11.40;91.90;;;;;;6245013;22;20027;-79
2021/10/30 06:50:32;;;;;;;1.13;0.80;;;11.40;91.90;;;;;;6244234;22;20086;-79
2021/10/30 06:52:58;;;;;;;2.33;0.98;;;11.40;91.90;;;;;;6245839;22;20378;-79
2021/10/30 06:55:23;;;;;;;1.38;0.98;;;11.40;91.90;;;;;;6270634;22;20579;-79
2021/10/30 06:57:50;;;;;;;1.52;0.85;;;11.30;91.90;;;;;;6272598;22;19995;-79
2021/10/30 07:00:16;;;;;;;2.28;1.17;;;11.50;92.00;;;;;;6295362;22;20018;-78
2021/10/30 07:02:44;;;;;;;1.45;1.00;;;11.40;91.90;;;;;;6243356;22;19988;-78
2021/10/30 07:05:10;;;;;;;1.85;1.15;;;11.40;91.90;;;;;;6274613;22;19991;-77
2021/10/30 07:07:36;;;;;;;1.80;1.20;;;11.50;92.00;;;;;;6301279;22;20068;-79
2021/10/30 07:10:02;;;;;;;1.77;1.10;;;11.50;92.00;;;;;;6296814;22;20060;-78
2021/10/30 07:12:31;;;;;;;2.20;1.13;;;11.50;92.00;;;;;;6261680;22;20340;-78
2021/10/30 07:14:57;;;;;;;1.63;1.02;;;11.50;92.00;;;;;;6271249;22;20011;-82
2021/10/30 07:17:23;;;;;;;2.35;1.10;;;11.50;92.00;;;;;;6250406;22;20015;-82
2021/10/30 07:19:50;;;;;;;1.35;0.93;;;11.50;92.00;;;;;;6250008;22;20018;-82
2021/10/30 07:22:16;;;;;;;1.92;1.00;;;11.60;92.00;;;;;;6273340;22;20420;-82
2021/10/30 07:24:43;;;;;;;2.92;1.33;;;11.50;92.00;;;;;;6274309;22;20004;-82
2021/10/30 07:27:10;;;;;;;2.42;1.30;;;11.50;92.00;;;;;;6249627;22;20030;-82
2021/10/30 07:29:36;;;;;;;2.25;1.20;;;11.60;92.00;;;;;;6272793;22;20014;-83
2021/10/30 07:32:01;;;;;;;2.10;1.20;;;11.50;92.00;;;;;;6249719;22;20035;-82
2021/10/30 07:34:27;;;;;;;1.70;1.20;;;11.50;92.00;;;;;;6224640;22;20008;-82
2021/10/30 07:36:54;;;;;;;2.03;1.20;;;11.60;92.00;;;;;;6249032;22;20010;-82
2021/10/30 07:39:20;;;;;;;1.33;0.90;;;11.60;92.00;;;;;;6275897;22;20011;-82
2021/10/30 07:41:46;;;;;;;1.30;0.80;;;11.60;92.00;;;;;;6214154;22;20336;-82
2021/10/30 07:44:12;;;;;;;1.58;0.80;;;11.60;92.00;;;;;;6253158;22;20149;-82
2021/10/30 07:46:39;;;;;;;1.27;0.90;;;11.50;92.00;;;;;;6251628;22;20016;-81
2021/10/30 07:49:06;;;;;;;1.10;0.80;;;11.60;92.00;;;;;;6223976;22;20815;-81
2021/10/30 07:51:32;;;;;;;1.20;0.90;;;11.60;92.00;;;;;;6258218;22;20039;-82
2021/10/30 07:53:58;;;;;;;1.40;1.10;;;11.70;92.10;;;;;;6226742;22;20012;-83
2021/10/30 07:56:23;;;;;;;1.48;0.88;;;11.60;92.00;;;;;;6224894;22;20038;-84
2021/10/30 07:58:49;;;;;;;1.42;0.95;;;11.60;92.00;;;;;;6249620;22;20012;-84
2021/10/30 08:01:17;;;;;;;1.38;0.90;;;11.70;92.10;;;;;;6249853;22;20015;-83
2021/10/30 08:03:43;;;;;;;1.00;0.88;;;11.70;92.10;;;;;;6223354;22;20003;-83
2021/10/30 08:06:14;;;;;;;1.23;0.80;;;11.80;92.10;;;;;;6252176;22;20077;-83
2021/10/30 08:08:40;;;;;;;1.27;1.05;;;11.70;92.20;;;;;;6223982;22;20030;-83
2021/10/30 08:11:06;;;;;;;1.73;1.00;;;11.80;92.10;;;;;;6221641;22;20011;-83
2021/10/30 08:13:31;;;;;;;1.23;0.90;;;11.80;92.00;;;;;;6250290;22;20404;-83
2021/10/30 08:15:57;;;;;;;1.50;1.00;;;11.80;92.00;;;;;;6246726;22;20018;-83
2021/10/30 08:18:24;;;;;;;1.92;0.82;;;11.80;92.00;;;;;;6277223;22;20037;-83
2021/10/30 08:20:50;;;;;;;0.80;0.80;;;11.90;92.10;;;;;;6245928;22;20034;-83
2021/10/30 08:23:16;;;;;;;1.02;0.80;;;11.90;92.10;;;;;;6251552;22;20003;-83
2021/10/30 08:25:42;;;;;;;0.80;0.60;;;11.80;92.00;;;;;;6251553;22;20007;-83
2021/10/30 08:28:07;;;;;;;0.80;0.80;;;11.80;92.00;;;;;;6249138;22;20093;-83
2021/10/30 08:30:33;;;;;;;0.80;0.73;;;11.80;92.00;;;;;;6249008;22;20432;-81
2021/10/30 08:32:59;;;;;;;1.48;0.90;;;11.80;92.00;;;;;;6224666;22;20099;-85
2021/10/30 08:35:25;;;;;;;0.90;0.65;;;11.90;92.00;;;;;;6223609;22;20078;-86
2021/10/30 08:37:51;;;;;;;0.75;0.60;;;11.90;92.00;;;;;;6250229;22;20039;-86
2021/10/30 08:40:24;;;;;;;0.82;0.80;;;12.00;92.10;;;;;;6249354;22;20008;-87
2021/10/30 08:42:52;;;;;;;0.98;0.80;;;11.90;92.00;;;;;;6222490;22;20004;-87
2021/10/30 08:45:20;;;;;;;0.80;0.70;;;12.00;92.10;;;;;;6220826;22;20015;-87
2021/10/30 08:47:49;;;;;;;1.10;0.68;;;12.00;92.10;;;;;;6218276;22;20446;-86
2021/10/30 08:50:21;;;;;;;0.80;0.65;;;12.00;92.10;;;;;;6249159;22;20070;-86
2021/10/30 08:52:47;;;;;;;0.93;0.70;;;12.00;92.10;;;;;;6212009;23;20063;-86
2021/10/30 08:55:16;;;;;;;1.15;0.77;;;12.00;92.00;;;;;;6162378;23;20472;-87
2021/10/30 08:57:44;;;;;;;0.63;0.63;;;12.00;92.00;;;;;;6176770;23;20024;-86
2021/10/30 09:00:18;;;;;;;1.17;0.60;;;12.10;92.00;;;;;;6179131;23;20012;-88
2021/10/30 09:03:04;;;;;;;0.60;0.60;;;12.10;92.00;;;;;;6187646;23;20095;-85
2021/10/30 09:06:34;;;;;;;1.20;0.73;;;12.20;92.10;;;;;;6128464;23;20013;-87
2021/10/30 10:05:19;;;;;;;1.50;0.80;;;12.60;91.70;;;;;;6276593;22;20054;-85
2021/10/30 10:07:49;;;;;;;0.75;0.60;;;12.60;91.60;;;;;;6246627;22;20015;-82
2021/10/30 10:22:05;;;;;;;1.02;0.70;;;12.60;91.70;;;;;;5990039;23;20456;-88
2021/10/30 10:24:37;;;;;;;0.98;0.65;;;12.70;91.70;;;;;;5960861;23;20099;-83
2021/10/30 10:27:05;;;;;;;1.65;1.00;;;12.60;91.70;;;;;;5978899;23;20016;-84
2021/10/30 10:29:36;;;;;;;1.50;1.00;;;12.80;91.80;;;;;;5935548;23;20096;-84
2021/10/30 10:54:12;;;;;;;0.57;0.50;;;12.80;91.80;;;;;;5793521;24;20495;-83
2021/10/30 11:00:36;;;;;;;0.85;0.60;;;12.90;91.90;;;;;;5982766;24;20060;-84
2021/10/30 11:03:04;;;;;;;1.08;0.57;;;12.90;91.80;;;;;;5954471;24;20063;-83
2021/10/30 11:06:03;;;;;;;0.60;0.60;;;12.90;91.80;;;;;;5882623;24;20043;-82
2021/10/30 11:08:32;;;;;;;2.55;0.80;;;12.90;91.90;;;;;;5896472;24;20040;-79
2021/10/30 11:11:19;;;;;;;0.73;0.70;;;12.90;91.90;;;;;;5892632;24;20029;-82
2021/10/30 11:13:51;;;;;;;0.57;0.57;;;12.90;91.90;;;;;;5903519;24;20029;-80
2021/10/30 11:16:31;;;;;;;2.00;0.75;;;12.90;91.90;;;;;;5877098;24;20045;-83
2021/10/30 11:19:02;;;;;;;0.70;0.60;;;13.00;92.00;;;;;;5877767;24;20052;-82
2021/10/30 11:21:34;;;;;;;0.77;0.68;;;13.00;92.00;;;;;;5900243;24;20455;-80
2021/10/30 11:24:19;;;;;;;0.98;0.80;;;13.00;92.00;;;;;;5918915;24;20020;-80
2021/10/30 11:26:54;;;;;;;0.57;0.55;;;13.00;92.10;;;;;;6019027;23;20137;-79
2021/10/30 11:29:20;;;;;;;1.02;0.65;;;13.00;92.00;;;;;;6035943;23;20015;-79
2021/10/30 11:31:53;;;;;;;1.33;0.80;;;13.00;92.00;;;;;;6038565;23;20025;-79
2021/10/30 11:34:20;;;;;;;0.80;0.70;;;13.10;92.10;;;;;;6082950;23;20022;-79
2021/10/30 11:36:46;;;;;;;1.08;0.80;;;13.10;92.00;;;;;;6178335;23;20099;-80
2021/10/30 11:39:14;;;;;;;1.60;0.70;;;13.10;92.00;;;;;;6209332;23;20020;-79
2021/10/30 11:41:45;;;;;;;0.93;0.80;;;13.20;92.10;;;;;;6187849;23;20047;-80
2021/10/30 11:44:15;;;;;;;2.17;0.90;;;13.10;92.00;;;;;;6205763;22;20038;-80
2021/10/30 11:46:44;;;;;;;0.77;0.70;;;13.20;92.10;;;;;;6223160;22;20053;-80
2021/10/30 11:49:15;;;;;;;1.50;0.98;;;13.20;92.10;;;;;;6222791;22;21310;-80
2021/10/30 11:51:44;;;;;;;0.47;0.45;;;13.20;92.10;;;;;;6274434;22;20016;-79
2021/10/30 11:54:12;;;;;;;0.75;0.60;;;13.30;92.10;;;;;;6249741;22;20031;-79
2021/10/30 11:56:39;;;;;;;0.80;0.80;;;13.20;92.00;;;;;;6248012;22;20016;-80
2021/10/30 11:59:08;;;;;;;0.88;0.75;;;13.30;92.00;;;;;;6248940;22;20027;-80
2021/10/30 12:01:39;;;;;;;1.05;0.68;;;13.40;92.00;;;;;;6218618;22;20031;-80
2021/10/30 12:04:18;;;;;;;0.73;0.65;;;13.40;92.00;;;;;;6273438;22;20004;-80
2021/10/30 12:07:01;;;;;;;0.80;0.73;;;13.40;92.00;;;;;;6249163;22;20003;-79
2021/10/30 12:09:34;;;;;;;0.90;0.65;;;13.40;92.00;;;;;;6221936;22;20440;-79
2021/10/30 12:12:05;;;;;;;1.05;0.80;;;13.50;92.00;;;;;;6248727;22;20428;-80
2021/10/30 12:14:40;;;;;;;0.85;0.63;;;13.50;92.00;;;;;;6248503;22;20011;-80
2021/10/30 12:17:13;;;;;;;1.55;0.90;;;13.50;92.00;;;;;;6262591;22;20007;-80
2021/10/30 12:31:30;;;;;;;0.70;0.60;;;13.70;91.90;;;;;;6263759;22;20107;-82
2021/10/30 12:45:22;;;;;;;0.50;0.50;;;14.00;91.70;;;;;;5986122;23;20372;-84
2021/10/30 12:52:24;;;;;;;0.40;0.40;;;14.10;91.80;;;;;;5953491;24;20023;-82
2021/10/30 12:56:17;;;;;;;0.93;0.70;;;14.10;91.70;;;;;;5930422;24;20506;-83
2021/10/30 13:02:25;;;;;;;3.55;2.35;;;14.20;91.60;;;;;;5870619;24;20113;-82
2021/10/30 13:05:12;;;;;;;3.00;1.95;;;14.30;91.50;;;;;;5846812;24;20026;-81
2021/10/30 13:07:39;;;;;;;2.70;1.77;;;14.30;91.50;;;;;;5822675;24;20022;-84
2021/10/30 13:10:07;;;;;;;2.58;1.60;;;14.40;91.50;;;;;;5831616;24;20071;-82
2021/10/30 13:12:32;;;;;;;2.22;1.50;;;14.40;91.50;;;;;;5852966;24;20021;-79
2021/10/30 13:14:58;;;;;;;1.95;1.30;;;14.60;91.40;;;;;;5907838;24;20039;-82
2021/10/30 13:17:24;;;;;;;2.30;1.30;;;14.70;91.30;;;;;;5928507;24;20061;-83
2021/10/30 13:19:50;;;;;;;2.08;1.25;;;14.70;91.20;;;;;;5879598;24;20020;-80
2021/10/30 13:22:41;;;;;;;1.33;1.02;;;14.70;91.20;;;;;;5879066;24;20018;-86
2021/10/30 13:25:08;;;;;;;;;;;14.70;91.30;;;;;;5920934;24;20041;-79
2021/10/30 13:27:34;;;;;;;1.40;0.85;;;14.70;91.30;;;;;;5920805;24;19918;-77
2021/10/30 13:30:00;;;;;;;1.38;0.95;;;14.80;91.20;;;;;;5956385;24;20020;-78
2021/10/30 13:32:26;;;;;;;1.90;1.20;;;14.80;91.10;;;;;;6028697;23;20055;-80
2021/10/30 13:34:52;;;;;;;0.98;0.77;;;14.80;91.10;;;;;;6052233;23;20517;-80
2021/10/30 13:37:17;;;;;;;1.08;0.88;;;14.80;91.10;;;;;;6099224;23;20554;-80
2021/10/30 13:39:46;;;;;;;0.93;0.68;;;14.70;91.20;;;;;;6173599;23;20541;-80
2021/10/30 13:42:12;;;;;;;1.00;0.80;;;14.70;91.30;;;;;;6160228;23;20013;-80
2021/10/30 13:44:38;;;;;;;1.05;0.80;;;14.60;91.30;;;;;;6159205;23;20010;-80
2021/10/30 13:47:04;;;;;;;1.67;0.95;;;14.60;91.30;;;;;;6161886;23;20017;-81
2021/10/30 13:49:30;;;;;;;1.15;0.70;;;14.60;91.30;;;;;;6165369;23;20488;-80
2021/10/30 13:51:56;;;;;;;0.95;0.80;;;14.60;91.30;;;;;;6160224;23;20013;-81
2021/10/30 13:54:22;;;;;;;1.17;0.90;;;14.60;91.30;;;;;;6229717;23;20018;-81
2021/10/30 13:56:48;;;;;;;0.77;0.65;;;14.60;91.30;;;;;;6262094;23;20043;-82
2021/10/30 13:59:14;;;;;;;0.90;0.70;;;14.60;91.40;;;;;;6228154;23;20008;-81
2021/10/30 14:01:41;;;;;;;0.90;0.77;;;14.50;91.30;;;;;;6182898;23;20095;-80
2021/10/30 14:04:07;;;;;;;1.15;0.82;;;14.60;91.30;;;;;;6211783;23;20016;-81
2021/10/30 14:06:33;;;;;;;1.27;0.70;;;14.50;91.30;;;;;;6202509;22;20016;-80
2021/10/30 14:09:10;;;;;;;0.98;0.68;;;14.50;91.40;;;;;;6234641;22;20008;-81
2021/10/30 14:11:36;;;;;;;1.20;0.70;;;14.60;91.60;;;;;;6174185;23;20016;-79
2021/10/30 14:14:03;;;;;;;1.08;0.90;;;14.60;91.30;;;;;;6196568;23;20012;-81
2021/10/30 14:16:31;;;;;;;1.08;0.80;;;14.70;91.30;;;;;;6222839;23;20040;-81
2021/10/30 14:18:57;;;;;;;0.60;0.60;;;14.60;91.30;;;;;;6198718;23;20031;-80
2021/10/30 14:21:23;;;;;;;0.85;0.73;;;14.60;91.20;;;;;;6172500;23;20064;-80
2021/10/30 14:23:50;;;;;;;0.77;0.70;;;14.60;91.50;;;;;;6176320;23;20020;-80
2021/10/30 14:26:17;;;;;;;0.55;0.52;;;14.60;91.30;;;;;;6191640;23;20015;-82
2021/10/30 14:28:43;;;;;;;2.03;0.80;;;14.50;91.30;;;;;;6191023;23;20609;-81
2021/10/30 14:31:10;;;;;;;1.17;0.80;;;14.50;91.30;;;;;;6197383;23;20483;-82
2021/10/30 14:33:38;;;;;;;1.45;0.70;;;14.50;91.30;;;;;;6198715;23;20029;-80
2021/10/30 14:36:04;;;;;;;0.70;0.70;;;14.60;91.30;;;;;;6209424;22;20023;-80
2021/10/30 14:38:31;;;;;;;1.08;0.70;;;14.50;91.30;;;;;;6238662;22;20380;-76
2021/10/30 14:40:57;;;;;;;1.30;0.90;;;14.50;91.30;;;;;;6257232;22;20012;-77
2021/10/30 14:43:23;;;;;;;1.13;0.80;;;14.40;91.50;;;;;;6277659;22;20018;-78
2021/10/30 14:45:51;;;;;;;1.15;0.80;;;14.60;91.30;;;;;;6282782;22;20047;-77
2021/10/30 14:48:18;;;;;;;0.73;0.65;;;14.60;91.20;;;;;;6288092;22;20010;-77
2021/10/30 14:50:44;;;;;;;1.25;0.80;;;14.50;91.20;;;;;;6251393;22;20454;-78
2021/10/30 14:53:11;;;;;;;1.23;0.80;;;14.50;91.20;;;;;;6278276;22;20095;-79
2021/10/30 14:55:38;;;;;;;0.70;0.60;;;14.50;91.20;;;;;;6223554;22;20015;-80